Latest Weather Observations for Bickley

IDW60901

Issued at 3:55 am WST Wednesday 22 October 2014 (issued every 10 minutes, with the page automatically refreshed every 10 minutes)

About weather observations | Map of Perth area stations | Latest observations for Perth area | Other Formats
Station Details ID: 009240 Name: BICKLEY Lat: -32.01 Lon: 116.14 Height: 384.0 m
Data from the previous 72 hours. | See also: Recent months at Bickley
Date/Time
WST
Tmp

°C
App
Tmp
°C
Dew
Point
°C
Rel
Hum
%
Delta-T

°C
Wind Press
QNH
hPa
Press
MSL
hPa
Rain
since
9 am
mm
Dir
 
Spd
km/h
Gust
km/h
Spd
kts
Gust
kts
22/03:30am 13.4 - 12.1 92 0.7 - - - - - - - 0.0
22/03:00am 13.6 - 12.0 90 0.9 - - - - - - - 0.0
22/02:30am 13.8 - 11.5 86 1.3 - - - - - - - 0.0
22/02:00am 14.2 - 10.8 80 1.8 - - - - - - - 0.0
22/01:30am 14.7 - 9.9 73 2.5 - - - - - - - 0.0
22/01:00am 15.2 - 9.8 70 2.9 - - - - - - - 0.0
22/12:30am 15.2 - 9.3 68 3.1 - - - - - - - 0.0
22/12:00am 15.2 - 9.1 67 3.2 - - - - - - - 0.0
 
Date/Time
WST
Tmp

°C
App
Tmp
°C
Dew
Point
°C
Rel
Hum
%
Delta-T

°C
Wind Press
QNH
hPa
Press
MSL
hPa
Rain
since
9 am
mm
Dir
 
Spd
km/h
Gust
km/h
Spd
kts
Gust
kts
21/11:30pm 15.1 - 8.6 65 3.4 - - - - - - - 0.0
21/11:00pm 15.6 - 8.6 63 3.6 - - - - - - - 0.0
21/10:30pm 16.0 - 8.5 61 3.9 - - - - - - - 0.0
21/10:00pm 16.3 - 8.5 60 4.1 - - - - - - - 0.0
21/09:30pm 16.9 - 9.1 60 4.1 - - - - - - - 0.0
21/09:00pm 16.3 - 10.8 70 3.0 - - - - - - - 0.0
21/08:30pm 16.7 - 11.8 73 2.7 - - - - - - - 0.0
21/08:00pm 16.5 - 12.8 79 2.1 - - - - - - - 0.0
21/07:30pm 16.4 - 12.8 79 2.0 - - - - - - - 0.0
21/07:00pm 17.1 - 12.8 76 2.4 - - - - - - - 0.0
21/06:30pm 17.9 - 12.8 72 2.9 - - - - - - - 0.0
21/06:00pm 19.3 - 12.8 66 3.7 - - - - - - - 0.0
21/05:30pm 20.3 - 12.5 61 4.5 - - - - - - - 0.0
21/05:00pm 22.0 - 12.3 54 5.6 - - - - - - - 0.0
21/04:30pm 22.7 - 9.1 42 7.4 - - - - - - - 0.0
21/04:00pm 22.9 - 9.7 43 7.3 - - - - - - - 0.0
21/03:30pm 22.5 - 9.3 43 7.2 - - - - - - - 0.0
21/03:00pm 23.2 - 10.6 45 7.1 - - - - - - - 0.0
21/02:30pm 22.2 - 9.7 45 6.9 - - - - - - - 0.0
21/02:00pm 22.0 - 10.2 47 6.5 - - - - - - - 0.0
21/01:30pm 22.2 - 11.3 50 6.2 - - - - - - - 0.0
21/01:00pm 20.3 - 9.8 51 5.7 - - - - - - - 0.0
21/12:30pm 20.0 - 10.4 54 5.3 - - - - - - - 0.0
21/12:00pm 19.4 - 10.4 56 4.9 - - - - - - - 0.0
21/11:30am 18.5 - 10.6 60 4.3 - - - - - - - 0.0
21/11:00am 17.5 - 10.4 63 3.9 - - - - - - - 0.0
21/10:30am 17.5 - 11.5 68 3.3 - - - - - - - 0.0
21/10:00am 15.4 - 10.4 72 2.7 - - - - - - - 0.0
21/09:30am 14.1 - 10.3 78 2.0 - - - - - - - 0.0
21/09:00am 13.1 - 10.1 82 1.6 - - - - - - - 0.2
21/08:30am 12.9 - 10.6 86 1.2 - - - - - - - 0.2
21/08:00am 12.6 - 11.0 90 0.9 - - - - - - - 0.2
21/07:30am 12.1 - 10.7 91 0.7 - - - - - - - 0.2
21/07:00am 11.4 - 10.6 95 0.4 - - - - - - - 0.2
21/06:30am 10.5 - 10.3 99 0.1 - - - - - - - 0.2
21/06:00am 9.6 - 9.5 99 0.1 - - - - - - - 0.0
21/05:30am 9.6 - 9.5 99 0.1 - - - - - - - 0.0
21/05:00am 9.4 - 9.3 99 0.1 - - - - - - - 0.0
21/04:30am 9.4 - 9.3 99 0.1 - - - - - - - 0.0
21/04:00am 9.8 - 9.7 99 0.1 - - - - - - - 0.0
21/03:30am 9.8 - 9.5 98 0.2 - - - - - - - 0.0
21/03:00am 9.6 - 9.1 97 0.3 - - - - - - - 0.0
21/02:30am 9.6 - 9.1 97 0.3 - - - - - - - 0.0
21/02:00am 9.6 - 9.0 96 0.3 - - - - - - - 0.0
21/01:30am 9.7 - 9.1 96 0.3 - - - - - - - 0.0
21/01:00am 9.7 - 8.9 95 0.4 - - - - - - - 0.0
21/12:30am 10.0 - 9.2 95 0.4 - - - - - - - 0.0
21/12:00am 10.0 - 9.2 95 0.4 - - - - - - - 0.0
 
Date/Time
WST
Tmp

°C
App
Tmp
°C
Dew
Point
°C
Rel
Hum
%
Delta-T

°C
Wind Press
QNH
hPa
Press
MSL
hPa
Rain
since
9 am
mm
Dir
 
Spd
km/h
Gust
km/h
Spd
kts
Gust
kts
20/11:30pm 10.2 - 9.4 95 0.4 - - - - - - - 0.0
20/11:00pm 10.1 - 9.3 95 0.4 - - - - - - - 0.0
20/10:30pm 10.4 - 9.5 94 0.5 - - - - - - - 0.0
20/10:00pm 11.0 - 10.1 94 0.5 - - - - - - - 0.0
20/09:30pm 11.2 - 10.1 93 0.6 - - - - - - - 0.0
20/09:00pm 11.5 - 10.2 92 0.7 - - - - - - - 0.0
20/08:30pm 11.8 - 10.4 91 0.7 - - - - - - - 0.0
20/08:00pm 12.3 - 10.5 89 1.0 - - - - - - - 0.0
20/07:30pm 12.8 - 11.2 90 0.9 - - - - - - - 0.0
20/07:00pm 13.0 - 11.2 89 1.0 - - - - - - - 0.0
20/06:30pm 13.6 - 10.9 84 1.4 - - - - - - - 0.0
20/06:00pm 14.5 - 10.7 78 2.0 - - - - - - - 0.0
20/05:30pm 15.7 - 11.1 74 2.5 - - - - - - - 0.0
20/05:00pm 16.0 - 10.7 71 2.9 - - - - - - - 0.0
20/04:30pm 15.5 - 11.1 75 2.4 - - - - - - - 0.0
20/04:00pm 16.0 - 10.3 69 3.1 - - - - - - - 0.0
20/03:30pm 16.2 - 10.1 67 3.3 - - - - - - - 0.0
20/03:00pm 16.3 - 11.0 71 2.9 - - - - - - - 0.0
20/02:30pm 16.9 - 11.0 68 3.2 - - - - - - - 0.0
20/02:00pm 16.9 - 11.6 71 2.9 - - - - - - - 0.0
20/01:30pm 15.5 - 11.3 76 2.3 - - - - - - - 0.0
20/01:00pm 16.1 - 11.5 74 2.5 - - - - - - - 0.0
20/12:30pm 16.3 - 11.2 72 2.8 - - - - - - - 0.0
20/12:00pm 17.9 - 11.9 68 3.4 - - - - - - - 0.0
20/11:30am 16.0 - 10.5 70 3.0 - - - - - - - 0.0
20/11:00am 15.7 - 10.9 73 2.6 - - - - - - - 0.0
20/10:30am 15.2 - 10.2 72 2.7 - - - - - - - 0.0
20/10:00am 15.5 - 10.1 70 2.9 - - - - - - - 0.0
20/09:30am 14.7 - 10.3 75 2.3 - - - - - - - 0.0
20/09:00am 14.3 - 10.5 78 2.0 - - - - - - - 2.8
20/08:30am 14.0 - 11.0 82 1.6 - - - - - - - 2.8
20/08:00am 13.3 - 10.8 85 1.3 - - - - - - - 2.8
20/07:30am 11.4 - 10.1 92 0.7 - - - - - - - 2.8
20/07:00am 10.4 - 9.8 96 0.3 - - - - - - - 2.8
20/06:30am 9.7 - 9.2 97 0.3 - - - - - - - 2.8
20/06:00am 9.0 - 8.5 97 0.2 - - - - - - - 2.8
20/05:30am 9.4 - 8.6 95 0.4 - - - - - - - 2.8
20/05:00am 9.7 - 8.8 94 0.5 - - - - - - - 2.8
20/04:30am 9.8 - 9.0 95 0.4 - - - - - - - 2.8
20/04:00am 9.7 - 8.9 95 0.4 - - - - - - - 2.8
20/03:30am 9.6 - 9.0 96 0.3 - - - - - - - 2.8
20/03:00am 9.5 - 9.0 97 0.3 - - - - - - - 2.8
20/02:30am 9.3 - 9.0 98 0.2 - - - - - - - 2.8
20/02:00am 9.4 - 9.3 99 0.1 - - - - - - - 2.8
20/01:30am 9.4 - 9.3 99 0.1 - - - - - - - 2.8
20/01:00am 9.4 - 9.1 98 0.2 - - - - - - - 2.8
20/12:30am 9.7 - 9.4 98 0.2 - - - - - - - 2.8
20/12:00am 9.8 - 9.5 98 0.2 - - - - - - - 2.8
 
Date/Time
WST
Tmp

°C
App
Tmp
°C
Dew
Point
°C
Rel
Hum
%
Delta-T

°C
Wind Press
QNH
hPa
Press
MSL
hPa
Rain
since
9 am
mm
Dir
 
Spd
km/h
Gust
km/h
Spd
kts
Gust
kts
19/11:30pm 9.9 - 9.3 96 0.3 - - - - - - - 2.8
19/11:00pm 9.6 - 8.8 95 0.4 - - - - - - - 2.8
19/10:30pm 9.9 - 9.1 95 0.4 - - - - - - - 2.8
19/10:00pm 10.2 - 9.1 93 0.6 - - - - - - - 2.8
19/09:30pm 10.7 - 9.5 92 0.6 - - - - - - - 2.8
19/09:00pm 10.6 - 9.0 90 0.8 - - - - - - - 2.8
19/08:30pm 11.1 - 9.4 89 0.9 - - - - - - - 2.8
19/08:00pm 11.1 - 9.2 88 1.0 - - - - - - - 2.8
19/07:30pm 11.2 - 9.6 90 0.8 - - - - - - - 2.8
19/07:00pm 11.7 - 9.9 89 0.9 - - - - - - - 2.8
19/06:30pm 12.1 - 10.0 87 1.1 - - - - - - - 2.8
19/06:00pm 12.6 - 10.5 87 1.1 - - - - - - - 2.8
19/05:30pm 12.8 - 10.5 86 1.2 - - - - - - - 2.8
19/05:00pm 13.1 - 10.5 84 1.4 - - - - - - - 2.8
19/04:30pm 13.7 - 10.9 83 1.5 - - - - - - - 2.8
19/04:00pm 14.4 - 11.6 83 1.5 - - - - - - - 2.8
19/03:30pm 15.0 - 11.6 80 1.9 - - - - - - - 2.8
19/03:00pm 14.3 - 11.5 83 1.5 - - - - - - - 2.8
19/02:30pm 13.8 - 11.8 88 1.1 - - - - - - - 2.8
19/02:00pm 14.3 - 12.5 89 1.0 - - - - - - - 2.8
19/01:30pm 13.7 - 12.9 95 0.4 - - - - - - - 2.8
19/01:00pm 13.3 - 12.8 97 0.3 - - - - - - - 2.6
19/12:30pm 13.0 - 12.5 97 0.3 - - - - - - - 2.0
19/12:00pm 12.8 - 12.5 98 0.2 - - - - - - - 1.6
19/11:30am 12.6 - 11.7 94 0.5 - - - - - - - 0.8
19/11:00am 13.4 - 12.0 91 0.8 - - - - - - - 0.6
19/10:30am 12.4 - 11.6 95 0.4 - - - - - - - 0.6
19/10:00am 11.4 - 11.2 99 0.1 - - - - - - - 0.6
19/09:30am 10.9 - 10.7 99 0.1 - - - - - - - 0.4
19/09:00am 11.0 - 10.4 96 0.3 - - - - - - - 2.8
19/08:30am 11.1 - 10.5 96 0.3 - - - - - - - 2.8
19/08:00am 10.9 - 10.4 97 0.3 - - - - - - - 2.8
19/07:30am 10.8 - 10.6 99 0.1 - - - - - - - 2.8
19/07:00am 10.7 - 10.5 99 0.1 - - - - - - - 2.6
19/06:30am 10.9 - 10.7 99 0.1 - - - - - - - 2.6
19/06:00am 10.8 - 10.5 98 0.2 - - - - - - - 2.6
19/05:30am 10.8 - 10.2 96 0.3 - - - - - - - 2.6
19/05:00am 11.1 - 10.3 95 0.4 - - - - - - - 2.6
19/04:30am 11.2 - 9.9 92 0.7 - - - - - - - 2.6
19/04:00am 11.3 - 10.2 93 0.6 - - - - - - - 2.6

Latest Capital City Observations: Canberra | Sydney | Melbourne | Brisbane | Adelaide | Perth | Hobart | Darwin

Other Formats:

Comma delimited format used in spreadsheet applications
http://www.bom.gov.au/fwo/IDW60901/IDW60901.95610.axf

JavaScript Object Notation format (JSON) in row-major order
http://www.bom.gov.au/fwo/IDW60901/IDW60901.95610.json